createdAt,value
2018-11-25T00:00:13.113Z,13.03
2018-11-25T00:05:17.500Z,12.30
2018-11-25T00:07:47.346Z,11.43
2018-11-25T00:10:18.108Z,11.40
2018-11-25T00:12:47.960Z,12.47
2018-11-25T00:15:17.839Z,10.57
2018-11-25T00:17:47.539Z,11.07
2018-11-25T00:20:17.526Z,11.70
2018-11-25T00:22:47.152Z,14.20
2018-11-25T00:25:16.735Z,12.10
2018-11-25T00:27:48.653Z,10.43
2018-11-25T00:30:18.612Z,14.23
2018-11-25T00:32:48.217Z,12.00
2018-11-25T00:35:17.850Z,11.27
2018-11-25T00:37:48.950Z,13.33
2018-11-25T00:40:18.737Z,12.03
2018-11-25T00:42:48.453Z,13.97
2018-11-25T00:45:18.912Z,12.03
2018-11-25T00:47:48.898Z,12.13
2018-11-25T00:50:19.038Z,13.30
2018-11-25T00:52:48.648Z,11.40
2018-11-25T00:57:53.596Z,16.07
2018-11-25T01:00:23.753Z,16.53
2018-11-25T01:02:53.747Z,14.43
2018-11-25T01:05:23.637Z,14.47
2018-11-25T01:07:53.307Z,12.80
2018-11-25T01:10:22.712Z,14.63
2018-11-25T01:15:26.611Z,14.10
2018-11-25T01:17:56.329Z,16.53
2018-11-25T01:20:26.027Z,13.80
2018-11-25T01:22:55.648Z,12.63
2018-11-25T01:25:25.133Z,12.47
2018-11-25T01:27:55.396Z,12.97
2018-11-25T01:35:33.652Z,12.93
2018-11-25T01:38:03.176Z,11.67
2018-11-25T01:40:32.821Z,11.10
2018-11-25T01:43:02.514Z,12.43
2018-11-25T01:45:32.795Z,14.40
2018-11-25T01:48:03.563Z,11.43
2018-11-25T01:50:33.339Z,15.33
2018-11-25T01:53:02.785Z,15.33
2018-11-25T01:58:07.028Z,11.83
2018-11-25T02:00:36.603Z,14.53
2018-11-25T02:03:06.401Z,11.73
2018-11-25T02:05:35.677Z,11.43
2018-11-25T02:08:05.394Z,14.90
2018-11-25T02:10:35.168Z,11.50
2018-11-25T02:15:39.429Z,11.37
2018-11-25T02:18:09.646Z,14.10
2018-11-25T02:20:39.354Z,14.53
2018-11-25T02:23:08.951Z,13.50
2018-11-25T02:25:38.575Z,13.13
2018-11-25T02:28:08.211Z,11.37
2018-11-25T02:30:38.028Z,12.27
2018-11-25T02:33:08.533Z,12.13
2018-11-25T02:35:38.459Z,12.17
2018-11-25T02:38:08.231Z,12.90
2018-11-25T02:40:37.682Z,13.83
2018-11-25T02:43:07.730Z,12.87
2018-11-25T02:45:37.708Z,12.37
2018-11-25T02:48:07.383Z,12.73
2018-11-25T02:50:37.258Z,13.00
2018-11-25T02:53:08.139Z,13.70
2018-11-25T02:55:39.081Z,11.63
2018-11-25T02:58:09.804Z,12.50
2018-11-25T03:00:39.736Z,11.90
2018-11-25T03:03:09.467Z,11.27
2018-11-25T03:05:38.919Z,16.30
2018-11-25T03:08:09.471Z,10.00
2018-11-25T03:10:39.991Z,13.77
2018-11-25T03:13:10.012Z,13.17
2018-11-25T03:15:40.209Z,13.80
2018-11-25T03:18:09.944Z,8.83
2018-11-25T03:20:39.849Z,11.20
2018-11-25T03:23:09.310Z,8.83
2018-11-25T03:25:39.596Z,10.57
2018-11-25T03:28:09.270Z,10.60
2018-11-25T03:33:13.806Z,13.10
2018-11-25T03:35:44.812Z,13.77
2018-11-25T03:38:15.545Z,10.03
2018-11-25T03:43:20.387Z,11.93
2018-11-25T03:48:23.793Z,11.37
2018-11-25T03:53:28.070Z,12.07
2018-11-25T03:56:02.194Z,11.73
2018-11-25T03:58:31.766Z,13.63
2018-11-25T04:01:01.353Z,18.37
2018-11-25T04:03:31.159Z,10.90
2018-11-25T04:06:01.460Z,12.50
2018-11-25T04:08:31.099Z,12.47
2018-11-25T04:11:00.611Z,10.13
2018-11-25T04:13:30.528Z,12.73
2018-11-25T04:16:00.171Z,8.37
2018-11-25T04:18:29.611Z,11.30
2018-11-25T04:20:59.240Z,11.10
2018-11-25T04:23:31.854Z,10.47
2018-11-25T04:26:02.046Z,13.07
2018-11-25T04:28:31.714Z,13.27
2018-11-25T04:31:01.257Z,13.63
2018-11-25T04:33:31.244Z,12.27
2018-11-25T04:36:00.799Z,13.67
2018-11-25T04:38:30.432Z,12.90
2018-11-25T04:41:00.044Z,13.27
2018-11-25T04:43:29.607Z,15.43
2018-11-25T04:45:59.231Z,6.93
2018-11-25T04:48:28.709Z,10.47
2018-11-25T04:50:59.217Z,6.93
2018-11-25T04:53:28.724Z,14.93
2018-11-25T04:56:00.124Z,11.83
2018-11-25T04:58:29.901Z,14.50
2018-11-25T05:00:59.443Z,10.47
2018-11-25T05:03:29.029Z,7.93
2018-11-25T05:05:59.142Z,10.27
2018-11-25T05:11:03.474Z,11.57
2018-11-25T05:13:33.120Z,9.23
2018-11-25T05:16:02.491Z,12.23
2018-11-25T05:18:32.019Z,7.47
2018-11-25T05:21:01.807Z,11.97
2018-11-25T05:23:31.485Z,12.20
2018-11-25T05:26:01.212Z,8.07
2018-11-25T05:28:30.773Z,9.63
2018-11-25T05:31:00.258Z,11.83
2018-11-25T05:33:29.693Z,8.73
2018-11-25T05:35:59.605Z,9.63
2018-11-25T05:38:29.220Z,8.90
2018-11-25T05:41:00.136Z,7.53
2018-11-25T05:43:29.650Z,10.23
2018-11-25T05:45:59.294Z,9.67
2018-11-25T05:48:29.676Z,9.30
2018-11-25T05:50:59.482Z,16.93
2018-11-25T05:53:29.091Z,9.93
2018-11-25T05:55:58.744Z,8.97
2018-11-25T05:58:29.034Z,11.10
2018-11-25T06:01:00.208Z,13.50
2018-11-25T06:03:29.974Z,7.83
2018-11-25T06:06:00.009Z,12.57
2018-11-25T06:08:29.950Z,9.07
2018-11-25T06:10:59.707Z,12.03
2018-11-25T06:13:30.235Z,11.23
2018-11-25T06:15:59.938Z,9.23
2018-11-25T06:18:32.248Z,6.33
2018-11-25T06:21:02.197Z,3.60
2018-11-25T06:23:32.222Z,9.70
2018-11-25T06:26:01.904Z,11.70
2018-11-25T06:28:31.667Z,8.97
2018-11-25T06:31:01.265Z,11.17
2018-11-25T06:36:04.807Z,10.53
2018-11-25T06:41:07.977Z,9.17
2018-11-25T06:43:37.569Z,13.07
2018-11-25T06:46:09.713Z,10.63
2018-11-25T06:51:13.850Z,11.27
2018-11-25T06:53:43.354Z,12.40
2018-11-25T06:56:12.910Z,12.20
2018-11-25T06:58:43.025Z,8.73
2018-11-25T07:01:12.855Z,9.17
2018-11-25T07:03:42.381Z,12.87
2018-11-25T07:06:11.911Z,9.23
2018-11-25T07:08:41.568Z,9.50
2018-11-25T07:11:10.951Z,11.17
2018-11-25T07:13:40.671Z,8.90
2018-11-25T07:16:11.347Z,10.00
2018-11-25T07:18:40.950Z,10.40
2018-11-25T07:21:10.440Z,6.93
2018-11-25T07:23:40.050Z,7.13
2018-11-25T07:26:09.839Z,8.10
2018-11-25T07:28:48.099Z,7.20
2018-11-25T07:31:17.708Z,9.60
2018-11-25T07:33:47.328Z,9.07
2018-11-25T07:36:17.135Z,8.13
2018-11-25T07:38:46.794Z,10.37
2018-11-25T07:41:17.011Z,7.50
2018-11-25T07:43:46.717Z,5.17
2018-11-25T07:46:16.482Z,5.40
2018-11-25T07:48:46.167Z,2.67
2018-11-25T07:51:15.634Z,8.13
2018-11-25T07:56:19.495Z,2.70
2018-11-25T07:58:50.530Z,8.53
2018-11-25T08:01:20.191Z,6.70
2018-11-25T08:03:50.134Z,9.13
2018-11-25T08:06:20.085Z,5.60
2018-11-25T08:08:49.931Z,6.53
2018-11-25T08:11:19.531Z,7.53
2018-11-25T08:13:49.221Z,5.53
2018-11-25T08:16:19.186Z,8.43
2018-11-25T08:18:50.197Z,8.60
2018-11-25T08:21:20.102Z,9.83
2018-11-25T08:23:50.564Z,5.57
2018-11-25T08:26:20.155Z,6.10
2018-11-25T08:28:50.803Z,8.90
2018-11-25T08:31:21.013Z,8.67
2018-11-25T08:36:24.470Z,10.20
2018-11-25T08:38:54.066Z,9.13
2018-11-25T08:46:32.494Z,9.03
2018-11-25T08:49:02.139Z,9.80
2018-11-25T08:51:32.129Z,7.13
2018-11-25T08:54:01.578Z,6.87
2018-11-25T08:56:30.987Z,8.10
2018-11-25T08:59:01.008Z,6.87
2018-11-25T09:01:30.662Z,8.07
2018-11-25T09:04:00.144Z,5.23
2018-11-25T09:06:29.727Z,9.50
2018-11-25T09:11:33.842Z,8.53
2018-11-25T09:14:03.368Z,9.13
2018-11-25T09:16:33.063Z,8.40
2018-11-25T09:19:03.457Z,10.80
2018-11-25T09:21:33.388Z,13.10
2018-11-25T09:24:04.050Z,5.80
2018-11-25T09:26:33.405Z,9.00
2018-11-25T09:29:02.957Z,12.30
2018-11-25T09:31:32.918Z,6.70
2018-11-25T09:34:02.611Z,9.50
2018-11-25T09:36:32.114Z,8.10
2018-11-25T09:39:01.993Z,6.13
2018-11-25T09:41:31.783Z,7.77
2018-11-25T09:44:01.279Z,9.40
2018-11-25T09:46:31.031Z,10.37
2018-11-25T09:49:00.820Z,7.83
2018-11-25T09:51:30.386Z,8.37
2018-11-25T09:53:59.993Z,8.87
2018-11-25T09:56:29.638Z,9.63
2018-11-25T09:58:59.321Z,10.93
2018-11-25T10:01:28.984Z,9.57
2018-11-25T10:03:58.580Z,12.77
2018-11-25T10:06:28.263Z,11.70
2018-11-25T10:08:57.918Z,7.80
2018-11-25T10:11:27.282Z,7.83
2018-11-25T10:13:56.808Z,7.53
2018-11-25T10:16:26.684Z,9.17
2018-11-25T10:18:56.203Z,7.50
2018-11-25T10:21:25.820Z,7.30
2018-11-25T10:23:55.665Z,7.13
2018-11-25T10:26:25.227Z,7.37
2018-11-25T10:28:54.685Z,5.53
2018-11-25T10:31:24.858Z,5.30
2018-11-25T10:33:54.575Z,5.53
2018-11-25T10:36:24.064Z,5.63
2018-11-25T10:38:53.780Z,4.33
2018-11-25T10:41:23.360Z,7.30
2018-11-25T10:43:52.900Z,6.00
2018-11-25T10:46:22.664Z,6.63
2018-11-25T10:48:53.583Z,9.00
2018-11-25T10:51:23.268Z,5.80
2018-11-25T10:53:53.157Z,7.43
2018-11-25T10:56:23.000Z,4.47
2018-11-25T10:58:52.690Z,8.07
2018-11-25T11:04:01.373Z,7.33
2018-11-25T11:11:44.782Z,5.73
2018-11-25T11:14:14.575Z,8.93
2018-11-25T11:19:18.799Z,6.80
2018-11-25T11:21:48.372Z,6.93
2018-11-25T11:24:18.189Z,4.80
2018-11-25T11:26:48.744Z,7.20
2018-11-25T11:29:17.899Z,6.17
2018-11-25T11:31:47.473Z,7.23
2018-11-25T11:34:17.409Z,4.83
2018-11-25T11:36:47.087Z,5.23
2018-11-25T11:39:16.683Z,5.50
2018-11-25T11:41:46.870Z,5.90
2018-11-25T11:44:16.788Z,5.50
2018-11-25T11:46:47.201Z,6.43
2018-11-25T11:49:17.236Z,7.40
2018-11-25T11:51:47.452Z,4.43
2018-11-25T11:54:17.393Z,6.63
2018-11-25T11:56:47.674Z,6.43
2018-11-25T11:59:18.208Z,6.07
2018-11-25T12:01:48.181Z,8.70
2018-11-25T12:04:17.720Z,5.70
2018-11-25T12:09:21.896Z,4.80
2018-11-25T12:11:51.387Z,6.93
2018-11-25T12:14:20.899Z,5.50
2018-11-25T12:16:50.594Z,5.67
2018-11-25T12:19:20.364Z,6.47
2018-11-25T12:21:57.776Z,4.30
2018-11-25T12:24:19.910Z,5.67
2018-11-25T12:26:49.614Z,5.07
2018-11-25T12:29:19.424Z,6.23
2018-11-25T12:31:49.222Z,7.17
2018-11-25T12:34:18.891Z,5.33
2018-11-25T12:39:28.476Z,4.23
2018-11-25T12:41:57.015Z,4.70
2018-11-25T12:44:29.311Z,4.40
2018-11-25T12:46:57.508Z,4.80
2018-11-25T12:49:27.127Z,6.20
2018-11-25T12:51:56.769Z,6.97
2018-11-25T12:54:26.390Z,6.53
2018-11-25T12:56:56.315Z,7.27
2018-11-25T12:59:26.802Z,5.93
2018-11-25T13:01:56.714Z,6.00
2018-11-25T13:04:27.817Z,7.73
2018-11-25T13:06:56.438Z,5.30
2018-11-25T13:09:26.092Z,7.77
2018-11-25T13:11:55.716Z,6.80
2018-11-25T13:14:26.422Z,5.90
2018-11-25T13:16:56.018Z,7.00
2018-11-25T13:19:25.884Z,4.47
2018-11-25T13:21:55.595Z,5.00
2018-11-25T13:24:25.845Z,5.90
2018-11-25T13:26:56.040Z,6.57
2018-11-25T13:29:25.750Z,5.60
2018-11-25T13:31:55.797Z,4.73
2018-11-25T13:34:25.489Z,4.63
2018-11-25T13:36:55.360Z,5.10
2018-11-25T13:39:25.449Z,6.33
2018-11-25T13:41:55.093Z,5.77
2018-11-25T13:44:24.828Z,4.43
2018-11-25T13:46:54.783Z,6.13
2018-11-25T13:49:24.597Z,6.80
2018-11-25T13:51:54.214Z,5.10
2018-11-25T13:54:23.936Z,5.40
2018-11-25T13:56:53.609Z,6.27
2018-11-25T14:04:32.366Z,6.83
2018-11-25T14:07:02.315Z,6.07
2018-11-25T14:09:32.742Z,8.33
2018-11-25T14:12:02.623Z,9.07
2018-11-25T14:14:32.052Z,6.90
2018-11-25T14:17:01.849Z,8.87
2018-11-25T14:19:31.464Z,5.37
2018-11-25T14:22:01.662Z,8.63
2018-11-25T14:24:31.528Z,8.37
2018-11-25T14:27:03.553Z,8.10
2018-11-25T14:29:33.618Z,6.70
2018-11-25T14:32:03.536Z,7.43
2018-11-25T14:34:33.402Z,9.03
2018-11-25T14:37:03.460Z,8.30
2018-11-25T14:39:33.066Z,10.67
2018-11-25T14:42:07.839Z,8.73
2018-11-25T14:44:37.903Z,8.23
2018-11-25T14:47:07.652Z,8.17
2018-11-25T14:49:42.939Z,7.30
2018-11-25T14:52:13.340Z,7.63
2018-11-25T14:54:51.025Z,5.57
2018-11-25T14:59:51.854Z,8.40
2018-11-25T15:02:22.402Z,6.87
2018-11-25T15:04:52.426Z,9.07
2018-11-25T15:07:22.489Z,7.07
2018-11-25T15:09:52.176Z,8.80
2018-11-25T15:12:22.757Z,6.27
2018-11-25T15:14:53.871Z,8.23
2018-11-25T15:17:22.398Z,5.60
2018-11-25T15:19:52.656Z,4.50
2018-11-25T15:22:22.673Z,5.87
2018-11-25T15:24:52.938Z,7.57
2018-11-25T15:27:23.039Z,5.17
2018-11-25T15:29:52.752Z,5.70
2018-11-25T15:32:22.449Z,5.80
2018-11-25T15:34:52.709Z,8.00
2018-11-25T15:39:57.764Z,6.10
2018-11-25T15:42:31.287Z,7.77
2018-11-25T15:45:09.982Z,5.93
2018-11-25T15:47:40.227Z,6.80
2018-11-25T15:50:12.139Z,6.30
2018-11-25T15:52:42.009Z,6.70
2018-11-25T15:55:14.779Z,6.17
2018-11-25T15:57:44.376Z,8.00
2018-11-25T16:00:16.333Z,6.90
2018-11-25T16:02:46.081Z,6.20
2018-11-25T16:07:52.777Z,4.60
2018-11-25T16:10:22.814Z,6.97
2018-11-25T16:12:52.771Z,6.20
2018-11-25T16:15:24.199Z,6.37
2018-11-25T16:17:53.977Z,5.27
2018-11-25T16:20:25.720Z,4.87
2018-11-25T16:23:01.282Z,6.63
2018-11-25T16:25:36.915Z,7.03
2018-11-25T16:28:30.048Z,5.80
2018-11-25T16:30:59.912Z,6.37
2018-11-25T16:33:32.550Z,17.63
2018-11-25T16:36:02.822Z,10.17
2018-11-25T16:38:33.392Z,6.77
2018-11-25T16:41:03.327Z,5.93
2018-11-25T16:46:09.357Z,8.00
2018-11-25T16:51:12.729Z,5.63
2018-11-25T16:53:42.555Z,2.50
2018-11-25T16:56:14.884Z,6.50
2018-11-25T16:58:44.401Z,5.20
2018-11-25T17:06:22.394Z,4.77
2018-11-25T17:08:52.430Z,5.03
2018-11-25T17:11:21.787Z,5.63
2018-11-25T17:13:51.371Z,5.27
2018-11-25T17:16:21.354Z,4.47
2018-11-25T17:21:26.133Z,4.83
2018-11-25T17:23:55.931Z,4.00
2018-11-25T17:26:25.643Z,4.93
2018-11-25T17:28:55.322Z,5.37
2018-11-25T17:31:25.144Z,3.87
2018-11-25T17:36:29.804Z,4.00
2018-11-25T17:38:59.379Z,3.47
2018-11-25T17:41:29.074Z,4.17
2018-11-25T17:43:58.631Z,5.87
2018-11-25T17:46:28.387Z,3.40
2018-11-25T17:48:58.034Z,4.30
2018-11-25T17:51:28.919Z,3.83
2018-11-25T17:53:59.051Z,4.97
2018-11-25T17:56:29.411Z,4.30
2018-11-25T17:58:59.172Z,4.83
2018-11-25T18:01:28.688Z,3.27
2018-11-25T18:03:58.366Z,3.07
2018-11-25T18:09:03.059Z,3.87
2018-11-25T18:11:32.596Z,4.27
2018-11-25T18:14:02.330Z,3.73
2018-11-25T18:19:22.347Z,4.67
2018-11-25T18:21:59.095Z,4.90
2018-11-25T18:24:29.426Z,6.73
2018-11-25T18:26:59.162Z,4.47
2018-11-25T18:29:29.178Z,4.17
2018-11-25T18:34:33.498Z,3.87
2018-11-25T18:37:03.128Z,4.33
2018-11-25T18:39:32.821Z,4.03
2018-11-25T18:42:02.575Z,5.57
2018-11-25T18:44:32.754Z,4.40
2018-11-25T18:47:03.434Z,3.90
2018-11-25T18:52:08.088Z,4.60
2018-11-25T18:54:48.846Z,5.03
2018-11-25T18:57:18.662Z,6.03
2018-11-25T18:59:48.829Z,5.53
2018-11-25T19:02:23.655Z,4.40
2018-11-25T19:04:53.229Z,3.43
2018-11-25T19:07:22.867Z,4.70
2018-11-25T19:09:52.570Z,5.33
2018-11-25T19:14:57.246Z,5.27
2018-11-25T19:17:27.204Z,5.90
2018-11-25T19:19:56.718Z,6.30
2018-11-25T19:25:03.574Z,4.40
2018-11-25T19:27:33.345Z,5.30
2018-11-25T19:30:03.759Z,4.97
2018-11-25T19:32:32.820Z,4.93
2018-11-25T19:35:02.513Z,5.30
2018-11-25T19:37:32.182Z,4.77
2018-11-25T19:40:02.288Z,5.03
2018-11-25T19:42:32.594Z,6.17
2018-11-25T19:45:02.439Z,5.43
2018-11-25T19:47:32.435Z,5.67
2018-11-25T19:50:09.162Z,3.53
2018-11-25T19:52:38.990Z,4.97
2018-11-25T19:55:09.045Z,5.40
2018-11-25T19:57:38.864Z,5.70
2018-11-25T20:00:17.414Z,3.77
2018-11-25T20:02:47.152Z,3.97
2018-11-25T20:05:16.687Z,3.70
2018-11-25T20:10:21.626Z,3.93
2018-11-25T20:12:53.181Z,3.77
2018-11-25T20:15:22.836Z,4.67
2018-11-25T20:17:54.562Z,5.80
2018-11-25T20:20:24.960Z,3.10
2018-11-25T20:22:55.148Z,4.27
2018-11-25T20:25:25.891Z,3.10
2018-11-25T20:27:56.426Z,4.53
2018-11-25T20:30:29.696Z,3.90
2018-11-25T20:33:04.288Z,4.60
2018-11-25T20:35:34.043Z,4.07
2018-11-25T20:38:08.907Z,3.67
2018-11-25T20:40:38.610Z,4.63
2018-11-25T20:43:09.252Z,5.33
2018-11-25T20:45:44.013Z,3.90
2018-11-25T20:48:13.939Z,3.57
2018-11-25T20:50:44.031Z,4.90
2018-11-25T20:53:18.977Z,4.13
2018-11-25T20:58:22.829Z,4.60
2018-11-25T21:03:26.827Z,3.13
2018-11-25T21:08:31.468Z,5.80
2018-11-25T21:13:35.494Z,4.87
2018-11-25T21:16:05.611Z,7.00
2018-11-25T21:18:35.558Z,8.20
2018-11-25T21:21:05.937Z,5.80
2018-11-25T21:23:36.279Z,6.37
2018-11-25T21:26:06.757Z,7.03
2018-11-25T21:28:36.738Z,3.40
2018-11-25T21:36:17.981Z,3.37
2018-11-25T21:38:47.984Z,3.37
2018-11-25T21:41:18.459Z,5.13
2018-11-25T21:43:48.704Z,4.13
2018-11-25T21:46:19.008Z,3.80
2018-11-25T21:48:48.741Z,3.53
2018-11-25T21:51:18.621Z,4.10
2018-11-25T21:53:48.455Z,3.80
2018-11-25T21:56:18.254Z,3.87
2018-11-25T21:58:48.049Z,3.23
2018-11-25T22:01:17.925Z,2.40
2018-11-25T22:03:47.718Z,3.60
2018-11-25T22:06:17.589Z,3.83
2018-11-25T22:08:47.158Z,3.43
2018-11-25T22:11:17.079Z,3.13
2018-11-25T22:13:46.885Z,4.17
2018-11-25T22:16:16.969Z,4.47
2018-11-25T22:18:46.764Z,4.27
2018-11-25T22:21:16.408Z,6.73
2018-11-25T22:23:46.137Z,4.87
2018-11-25T22:26:15.804Z,5.93
2018-11-25T22:28:45.495Z,4.77
2018-11-25T22:31:15.744Z,4.43
2018-11-25T22:33:46.540Z,4.97
2018-11-25T22:36:16.106Z,4.07
2018-11-25T22:38:45.739Z,5.00
2018-11-25T22:41:15.505Z,4.00
2018-11-25T22:43:45.208Z,4.17
2018-11-25T22:46:15.713Z,4.97
2018-11-25T22:48:45.214Z,6.67
2018-11-25T22:51:14.656Z,4.57
2018-11-25T22:53:44.327Z,5.10
2018-11-25T22:56:14.108Z,4.43
2018-11-25T22:58:43.725Z,3.37
2018-11-25T23:01:13.373Z,5.10
2018-11-25T23:03:42.837Z,6.57
2018-11-25T23:06:23.223Z,6.17
2018-11-25T23:08:52.955Z,5.50
2018-11-25T23:11:22.792Z,7.77
2018-11-25T23:13:52.480Z,5.00
2018-11-25T23:16:22.010Z,6.20
2018-11-25T23:21:51.639Z,3.37
2018-11-25T23:24:21.819Z,5.73
2018-11-25T23:26:51.260Z,5.10
2018-11-25T23:29:20.895Z,7.07
2018-11-25T23:31:50.593Z,5.03
2018-11-25T23:34:20.535Z,4.80
2018-11-25T23:36:50.245Z,4.60
2018-11-25T23:39:19.934Z,6.63
2018-11-25T23:41:49.317Z,4.23
2018-11-25T23:44:19.088Z,6.93
2018-11-25T23:46:54.108Z,7.03
2018-11-25T23:49:23.760Z,8.70
2018-11-25T23:51:54.124Z,7.03
2018-11-25T23:54:23.747Z,8.83
2018-11-25T23:56:53.433Z,5.23
2018-11-25T23:59:22.954Z,7.10
